sensor_id;sensor_type;location;lat;lon;timestamp;pressure;altitude;pressure_sealevel;temperature;humidity
36254;BME280;22291;52.250;21.228;2022-12-31T00:01:38;100292.80;;;3.01;92.46
36254;BME280;22291;52.250;21.228;2022-12-31T00:04:04;100291.20;;;3.03;92.98
36254;BME280;22291;52.250;21.228;2022-12-31T00:06:33;100294.44;;;3.07;92.60
36254;BME280;22291;52.250;21.228;2022-12-31T00:09:04;100287.50;;;3.09;92.58
36254;BME280;22291;52.250;21.228;2022-12-31T00:11:33;100280.31;;;3.12;92.78
36254;BME280;22291;52.250;21.228;2022-12-31T00:14:00;100284.58;;;3.13;92.45
36254;BME280;22291;52.250;21.228;2022-12-31T00:16:30;100281.11;;;3.15;92.56
36254;BME280;22291;52.250;21.228;2022-12-31T00:19:02;100269.36;;;3.16;92.64
36254;BME280;22291;52.250;21.228;2022-12-31T00:21:31;100266.97;;;3.17;92.76
36254;BME280;22291;52.250;21.228;2022-12-31T00:24:00;100268.05;;;3.18;92.38
36254;BME280;22291;52.250;21.228;2022-12-31T00:26:30;100254.69;;;3.18;92.96
36254;BME280;22291;52.250;21.228;2022-12-31T00:29:00;100260.03;;;3.18;92.55
36254;BME280;22291;52.250;21.228;2022-12-31T00:31:32;100254.95;;;3.17;92.01
36254;BME280;22291;52.250;21.228;2022-12-31T00:34:00;100249.59;;;3.20;92.77
36254;BME280;22291;52.250;21.228;2022-12-31T00:36:36;100236.48;;;3.18;92.60
36254;BME280;22291;52.250;21.228;2022-12-31T00:39:06;100242.92;;;3.17;92.28
36254;BME280;22291;52.250;21.228;2022-12-31T00:41:35;100243.17;;;3.18;92.16
36254;BME280;22291;52.250;21.228;2022-12-31T00:44:03;100243.45;;;3.22;92.35
36254;BME280;22291;52.250;21.228;2022-12-31T00:46:29;100237.34;;;3.24;92.84
36254;BME280;22291;52.250;21.228;2022-12-31T00:48:57;100233.86;;;3.26;92.34
36254;BME280;22291;52.250;21.228;2022-12-31T00:51:25;100242.16;;;3.29;92.46
36254;BME280;22291;52.250;21.228;2022-12-31T00:53:54;100236.02;;;3.31;92.24
36254;BME280;22291;52.250;21.228;2022-12-31T00:56:24;100243.23;;;3.33;92.09
36254;BME280;22291;52.250;21.228;2022-12-31T00:58:54;100228.02;;;3.34;91.81
36254;BME280;22291;52.250;21.228;2022-12-31T01:01:24;100240.84;;;3.34;91.48
36254;BME280;22291;52.250;21.228;2022-12-31T01:04:01;100221.33;;;3.36;91.85
36254;BME280;22291;52.250;21.228;2022-12-31T01:06:30;100223.45;;;3.37;91.71
36254;BME280;22291;52.250;21.228;2022-12-31T01:08:57;100219.73;;;3.38;91.51
36254;BME280;22291;52.250;21.228;2022-12-31T01:11:24;100207.98;;;3.39;91.60
36254;BME280;22291;52.250;21.228;2022-12-31T01:16:24;100209.83;;;3.39;91.14
36254;BME280;22291;52.250;21.228;2022-12-31T01:18:52;100200.47;;;3.39;91.46
36254;BME280;22291;52.250;21.228;2022-12-31T01:21:22;100186.84;;;3.38;91.19
36254;BME280;22291;52.250;21.228;2022-12-31T01:23:49;100180.69;;;3.34;90.87
36254;BME280;22291;52.250;21.228;2022-12-31T01:26:18;100185.75;;;3.33;90.96
36254;BME280;22291;52.250;21.228;2022-12-31T01:28:46;100167.59;;;3.30;90.79
36254;BME280;22291;52.250;21.228;2022-12-31T01:31:16;100183.89;;;3.29;90.98
36254;BME280;22291;52.250;21.228;2022-12-31T01:33:45;100172.11;;;3.27;90.81
36254;BME280;22291;52.250;21.228;2022-12-31T01:36:17;100172.37;;;3.26;90.78
36254;BME280;22291;52.250;21.228;2022-12-31T01:38:46;100165.69;;;3.26;90.91
36254;BME280;22291;52.250;21.228;2022-12-31T01:41:16;100181.45;;;3.25;90.87
36254;BME280;22291;52.250;21.228;2022-12-31T01:43:55;100174.52;;;3.24;90.84
36254;BME280;22291;52.250;21.228;2022-12-31T01:49:20;100160.61;;;3.24;90.64
36254;BME280;22291;52.250;21.228;2022-12-31T01:52:10;100151.51;;;3.23;90.83
36254;BME280;22291;52.250;21.228;2022-12-31T01:57:19;100147.52;;;3.25;91.00
36254;BME280;22291;52.250;21.228;2022-12-31T01:59:47;100157.92;;;3.27;91.47
36254;BME280;22291;52.250;21.228;2022-12-31T02:02:16;100149.13;;;3.29;91.16
36254;BME280;22291;52.250;21.228;2022-12-31T02:04:42;100146.72;;;3.27;91.12
36254;BME280;22291;52.250;21.228;2022-12-31T02:07:10;100138.16;;;3.28;90.96
36254;BME280;22291;52.250;21.228;2022-12-31T02:09:39;100148.59;;;3.29;91.04
36254;BME280;22291;52.250;21.228;2022-12-31T02:12:08;100126.94;;;3.31;91.14
36254;BME280;22291;52.250;21.228;2022-12-31T02:14:41;100122.14;;;3.30;91.12
36254;BME280;22291;52.250;21.228;2022-12-31T02:17:28;100121.05;;;3.31;90.97
36254;BME280;22291;52.250;21.228;2022-12-31T02:31:59;100127.48;;;3.43;91.27
36254;BME280;22291;52.250;21.228;2022-12-31T02:34:39;100091.41;;;3.46;91.29
36254;BME280;22291;52.250;21.228;2022-12-31T02:37:11;100081.75;;;3.47;90.91
36254;BME280;22291;52.250;21.228;2022-12-31T02:39:41;100077.23;;;3.48;90.80
36254;BME280;22291;52.250;21.228;2022-12-31T02:42:10;100079.38;;;3.46;90.73
36254;BME280;22291;52.250;21.228;2022-12-31T02:44:39;100077.22;;;3.45;90.50
36254;BME280;22291;52.250;21.228;2022-12-31T02:53:38;100073.48;;;3.41;90.34
36254;BME280;22291;52.250;21.228;2022-12-31T02:59:12;100084.72;;;3.41;90.88
36254;BME280;22291;52.250;21.228;2022-12-31T03:01:54;100074.80;;;3.44;90.71
36254;BME280;22291;52.250;21.228;2022-12-31T03:04:44;100075.88;;;3.45;90.64
36254;BME280;22291;52.250;21.228;2022-12-31T03:07:17;100082.84;;;3.46;90.45
36254;BME280;22291;52.250;21.228;2022-12-31T03:09:44;100076.97;;;3.44;90.28
36254;BME280;22291;52.250;21.228;2022-12-31T03:12:13;100075.63;;;3.44;90.50
36254;BME280;22291;52.250;21.228;2022-12-31T03:14:58;100091.94;;;3.43;90.21
36254;BME280;22291;52.250;21.228;2022-12-31T03:17:27;100080.43;;;3.40;90.26
36254;BME280;22291;52.250;21.228;2022-12-31T03:19:53;100091.13;;;3.40;90.46
36254;BME280;22291;52.250;21.228;2022-12-31T03:22:40;100094.08;;;3.41;90.80
36254;BME280;22291;52.250;21.228;2022-12-31T03:25:09;100093.25;;;3.40;90.62
36254;BME280;22291;52.250;21.228;2022-12-31T03:27:57;100089.78;;;3.40;90.59
36254;BME280;22291;52.250;21.228;2022-12-31T03:30:25;100107.45;;;3.41;90.72
36254;BME280;22291;52.250;21.228;2022-12-31T03:32:52;100093.25;;;3.40;90.83
36254;BME280;22291;52.250;21.228;2022-12-31T03:35:20;100088.19;;;3.41;90.51
36254;BME280;22291;52.250;21.228;2022-12-31T03:37:48;100090.31;;;3.42;90.72
36254;BME280;22291;52.250;21.228;2022-12-31T03:40:16;100091.11;;;3.42;90.58
36254;BME280;22291;52.250;21.228;2022-12-31T03:42:43;100083.09;;;3.42;90.63
36254;BME280;22291;52.250;21.228;2022-12-31T03:45:11;100082.83;;;3.44;90.69
36254;BME280;22291;52.250;21.228;2022-12-31T03:47:38;100101.55;;;3.44;90.65
36254;BME280;22291;52.250;21.228;2022-12-31T03:50:07;100099.14;;;3.47;90.80
36254;BME280;22291;52.250;21.228;2022-12-31T03:52:34;100104.77;;;3.48;90.61
36254;BME280;22291;52.250;21.228;2022-12-31T03:55:01;100106.38;;;3.52;90.56
36254;BME280;22291;52.250;21.228;2022-12-31T03:57:28;100095.67;;;3.52;90.68
36254;BME280;22291;52.250;21.228;2022-12-31T03:59:55;100114.15;;;3.56;90.55
36254;BME280;22291;52.250;21.228;2022-12-31T04:02:21;100099.97;;;3.58;90.62
36254;BME280;22291;52.250;21.228;2022-12-31T04:04:48;100100.77;;;3.64;90.56
36254;BME280;22291;52.250;21.228;2022-12-31T04:07:14;100098.35;;;3.67;90.56
36254;BME280;22291;52.250;21.228;2022-12-31T04:09:40;100096.22;;;3.72;90.57
36254;BME280;22291;52.250;21.228;2022-12-31T04:12:07;100111.48;;;3.77;90.47
36254;BME280;22291;52.250;21.228;2022-12-31T04:14:33;100099.70;;;3.80;90.45
36254;BME280;22291;52.250;21.228;2022-12-31T04:16:59;100115.76;;;3.85;90.42
36254;BME280;22291;52.250;21.228;2022-12-31T04:19:26;100115.23;;;3.88;90.34
36254;BME280;22291;52.250;21.228;2022-12-31T04:21:52;100111.72;;;3.93;90.29
36254;BME280;22291;52.250;21.228;2022-12-31T04:24:18;100096.75;;;3.97;90.28
36254;BME280;22291;52.250;21.228;2022-12-31T04:26:44;100098.34;;;4.01;90.22
36254;BME280;22291;52.250;21.228;2022-12-31T04:29:11;100100.47;;;4.06;90.26
36254;BME280;22291;52.250;21.228;2022-12-31T04:31:37;100101.81;;;4.14;90.21
36254;BME280;22291;52.250;21.228;2022-12-31T04:34:03;100098.84;;;4.18;90.10
36254;BME280;22291;52.250;21.228;2022-12-31T04:36:29;100091.33;;;4.25;89.98
36254;BME280;22291;52.250;21.228;2022-12-31T04:38:56;100088.66;;;4.28;89.82
36254;BME280;22291;52.250;21.228;2022-12-31T04:41:22;100083.29;;;4.33;89.71
36254;BME280;22291;52.250;21.228;2022-12-31T04:43:53;100079.53;;;4.37;89.58
36254;BME280;22291;52.250;21.228;2022-12-31T04:46:23;100079.80;;;4.38;89.47
36254;BME280;22291;52.250;21.228;2022-12-31T04:48:51;100082.73;;;4.41;89.34
36254;BME280;22291;52.250;21.228;2022-12-31T04:51:19;100089.95;;;4.43;89.21
36254;BME280;22291;52.250;21.228;2022-12-31T04:53:46;100096.38;;;4.45;89.12
36254;BME280;22291;52.250;21.228;2022-12-31T04:56:13;100086.73;;;4.46;89.07
36254;BME280;22291;52.250;21.228;2022-12-31T04:58:40;100091.55;;;4.49;89.01
36254;BME280;22291;52.250;21.228;2022-12-31T05:01:07;100068.24;;;4.50;88.96
36254;BME280;22291;52.250;21.228;2022-12-31T05:03:34;100060.18;;;4.53;88.91
36254;BME280;22291;52.250;21.228;2022-12-31T05:06:08;100064.20;;;4.55;88.83
36254;BME280;22291;52.250;21.228;2022-12-31T05:08:33;100063.41;;;4.55;88.76
36254;BME280;22291;52.250;21.228;2022-12-31T05:11:00;100081.34;;;4.57;88.70
36254;BME280;22291;52.250;21.228;2022-12-31T05:13:27;100094.47;;;4.58;88.67
36254;BME280;22291;52.250;21.228;2022-12-31T05:15:53;100080.52;;;4.59;88.72
36254;BME280;22291;52.250;21.228;2022-12-31T05:18:20;100088.02;;;4.62;88.70
36254;BME280;22291;52.250;21.228;2022-12-31T05:20:47;100090.16;;;4.62;88.63
36254;BME280;22291;52.250;21.228;2022-12-31T05:23:14;100085.59;;;4.65;88.65
36254;BME280;22291;52.250;21.228;2022-12-31T05:25:42;100084.77;;;4.67;88.59
36254;BME280;22291;52.250;21.228;2022-12-31T05:28:10;100077.02;;;4.68;88.48
36254;BME280;22291;52.250;21.228;2022-12-31T05:30:37;100074.58;;;4.72;88.38
36254;BME280;22291;52.250;21.228;2022-12-31T05:33:03;100074.03;;;4.73;88.32
36254;BME280;22291;52.250;21.228;2022-12-31T05:35:30;100090.12;;;4.75;88.32
36254;BME280;22291;52.250;21.228;2022-12-31T05:37:58;100086.62;;;4.77;88.24
36254;BME280;22291;52.250;21.228;2022-12-31T05:40:25;100085.25;;;4.80;88.16
36254;BME280;22291;52.250;21.228;2022-12-31T05:42:51;100080.96;;;4.84;88.21
36254;BME280;22291;52.250;21.228;2022-12-31T05:45:18;100094.36;;;4.84;88.12
36254;BME280;22291;52.250;21.228;2022-12-31T05:47:44;100088.45;;;4.87;88.08
36254;BME280;22291;52.250;21.228;2022-12-31T05:50:13;100085.75;;;4.90;87.99
36254;BME280;22291;52.250;21.228;2022-12-31T05:52:44;100082.80;;;4.91;87.92
36254;BME280;22291;52.250;21.228;2022-12-31T05:55:11;100088.43;;;4.92;87.89
36254;BME280;22291;52.250;21.228;2022-12-31T05:57:39;100090.80;;;4.94;87.90
36254;BME280;22291;52.250;21.228;2022-12-31T06:00:09;100087.06;;;4.95;87.90
36254;BME280;22291;52.250;21.228;2022-12-31T06:02:36;100079.30;;;4.96;87.88
36254;BME280;22291;52.250;21.228;2022-12-31T06:05:03;100074.45;;;4.98;87.87
36254;BME280;22291;52.250;21.228;2022-12-31T06:07:30;100076.31;;;5.00;87.89
36254;BME280;22291;52.250;21.228;2022-12-31T06:09:56;100074.97;;;5.02;87.89
36254;BME280;22291;52.250;21.228;2022-12-31T06:12:22;100087.28;;;5.03;87.99
36254;BME280;22291;52.250;21.228;2022-12-31T06:14:48;100084.84;;;5.07;88.00
36254;BME280;22291;52.250;21.228;2022-12-31T06:17:14;100071.98;;;5.09;88.02
36254;BME280;22291;52.250;21.228;2022-12-31T06:19:40;100078.66;;;5.12;88.06
36254;BME280;22291;52.250;21.228;2022-12-31T06:22:06;100086.95;;;5.15;88.21
36254;BME280;22291;52.250;21.228;2022-12-31T06:24:32;100077.56;;;5.18;88.35
36254;BME280;22291;52.250;21.228;2022-12-31T06:26:58;100077.28;;;5.19;88.46
36254;BME280;22291;52.250;21.228;2022-12-31T06:29:24;100077.77;;;5.24;88.59
36254;BME280;22291;52.250;21.228;2022-12-31T06:31:51;100076.67;;;5.28;88.64
36254;BME280;22291;52.250;21.228;2022-12-31T06:34:17;100076.12;;;5.31;88.74
36254;BME280;22291;52.250;21.228;2022-12-31T06:36:43;100092.73;;;5.35;88.90
36254;BME280;22291;52.250;21.228;2022-12-31T06:39:09;100104.77;;;5.38;88.90
36254;BME280;22291;52.250;21.228;2022-12-31T06:41:35;100110.91;;;5.41;88.91
36254;BME280;22291;52.250;21.228;2022-12-31T06:44:02;100096.41;;;5.45;88.98
36254;BME280;22291;52.250;21.228;2022-12-31T06:46:28;100095.03;;;5.50;88.89
36254;BME280;22291;52.250;21.228;2022-12-31T06:48:54;100097.16;;;5.53;88.92
36254;BME280;22291;52.250;21.228;2022-12-31T06:51:21;100095.27;;;5.56;88.86
36254;BME280;22291;52.250;21.228;2022-12-31T06:53:49;100096.59;;;5.58;88.84
36254;BME280;22291;52.250;21.228;2022-12-31T06:56:22;100097.35;;;5.61;88.80
36254;BME280;22291;52.250;21.228;2022-12-31T06:58:51;100091.19;;;5.64;88.91
36254;BME280;22291;52.250;21.228;2022-12-31T07:04:31;100100.78;;;5.70;88.95
36254;BME280;22291;52.250;21.228;2022-12-31T07:07:20;100105.04;;;5.76;89.00
36254;BME280;22291;52.250;21.228;2022-12-31T07:10:21;100106.62;;;5.79;89.01
36254;BME280;22291;52.250;21.228;2022-12-31T07:13:10;100106.85;;;5.83;89.10
36254;BME280;22291;52.250;21.228;2022-12-31T07:21:30;100123.38;;;5.95;89.16
36254;BME280;22291;52.250;21.228;2022-12-31T07:24:01;100132.52;;;6.00;89.21
36254;BME280;22291;52.250;21.228;2022-12-31T07:26:56;100143.50;;;6.03;89.35
36254;BME280;22291;52.250;21.228;2022-12-31T07:29:55;100139.67;;;6.09;89.34
36254;BME280;22291;52.250;21.228;2022-12-31T07:38:05;100141.97;;;6.24;89.47
36254;BME280;22291;52.250;21.228;2022-12-31T07:49:13;100139.08;;;6.44;89.60
36254;BME280;22291;52.250;21.228;2022-12-31T07:51:41;100144.67;;;6.50;89.53
36254;BME280;22291;52.250;21.228;2022-12-31T07:54:08;100146.48;;;6.55;89.63
36254;BME280;22291;52.250;21.228;2022-12-31T07:56:35;100141.05;;;6.60;89.57
36254;BME280;22291;52.250;21.228;2022-12-31T07:59:07;100134.82;;;6.65;89.55
36254;BME280;22291;52.250;21.228;2022-12-31T08:01:56;100133.97;;;6.69;89.54
36254;BME280;22291;52.250;21.228;2022-12-31T08:07:33;100139.73;;;6.82;89.49
36254;BME280;22291;52.250;21.228;2022-12-31T08:10:38;100135.91;;;6.88;89.38
36254;BME280;22291;52.250;21.228;2022-12-31T08:13:10;100136.64;;;6.94;89.35
36254;BME280;22291;52.250;21.228;2022-12-31T08:15:38;100136.28;;;7.00;89.19
36254;BME280;22291;52.250;21.228;2022-12-31T08:18:06;100140.25;;;7.05;89.18
36254;BME280;22291;52.250;21.228;2022-12-31T08:20:37;100146.13;;;7.10;89.13
36254;BME280;22291;52.250;21.228;2022-12-31T08:26:08;100160.17;;;7.23;89.04
36254;BME280;22291;52.250;21.228;2022-12-31T08:31:59;100151.68;;;7.35;88.67
36254;BME280;22291;52.250;21.228;2022-12-31T08:34:40;100140.61;;;7.39;88.40
36254;BME280;22291;52.250;21.228;2022-12-31T08:37:36;100144.86;;;7.43;88.36
36254;BME280;22291;52.250;21.228;2022-12-31T08:40:36;100146.70;;;7.45;88.23
36254;BME280;22291;52.250;21.228;2022-12-31T08:43:30;100151.22;;;7.50;88.26
36254;BME280;22291;52.250;21.228;2022-12-31T08:46:02;100152.50;;;7.55;88.16
36254;BME280;22291;52.250;21.228;2022-12-31T08:48:42;100159.94;;;7.60;88.16
36254;BME280;22291;52.250;21.228;2022-12-31T08:51:16;100168.49;;;7.65;88.15
36254;BME280;22291;52.250;21.228;2022-12-31T08:53:46;100168.16;;;7.69;87.97
36254;BME280;22291;52.250;21.228;2022-12-31T08:56:35;100169.42;;;7.74;87.99
36254;BME280;22291;52.250;21.228;2022-12-31T09:01:48;100167.70;;;7.81;87.62
36254;BME280;22291;52.250;21.228;2022-12-31T09:07:02;100171.64;;;7.89;87.53
36254;BME280;22291;52.250;21.228;2022-12-31T09:14:59;100181.03;;;8.08;87.49
36254;BME280;22291;52.250;21.228;2022-12-31T09:17:41;100176.61;;;8.14;87.29
36254;BME280;22291;52.250;21.228;2022-12-31T09:20:29;100170.34;;;8.19;87.18
36254;BME280;22291;52.250;21.228;2022-12-31T09:22:54;100168.09;;;8.23;86.82
36254;BME280;22291;52.250;21.228;2022-12-31T09:25:23;100166.66;;;8.29;86.63
36254;BME280;22291;52.250;21.228;2022-12-31T09:31:17;100167.52;;;8.40;86.61
36254;BME280;22291;52.250;21.228;2022-12-31T09:36:37;100151.75;;;8.50;86.21
36254;BME280;22291;52.250;21.228;2022-12-31T09:50:08;100127.33;;;9.25;85.73
36254;BME280;22291;52.250;21.228;2022-12-31T09:55:51;100112.25;;;9.80;85.07
36254;BME280;22291;52.250;21.228;2022-12-31T09:58:44;100131.48;;;9.90;82.75
36254;BME280;22291;52.250;21.228;2022-12-31T10:01:49;100113.97;;;9.87;82.84
36254;BME280;22291;52.250;21.228;2022-12-31T10:07:26;100116.00;;;9.82;82.66
36254;BME280;22291;52.250;21.228;2022-12-31T10:12:53;100122.58;;;9.89;82.95
36254;BME280;22291;52.250;21.228;2022-12-31T10:15:53;100122.20;;;10.05;83.26
36254;BME280;22291;52.250;21.228;2022-12-31T10:18:36;100119.75;;;10.26;82.46
36254;BME280;22291;52.250;21.228;2022-12-31T10:32:50;100091.91;;;10.05;81.62
36254;BME280;22291;52.250;21.228;2022-12-31T10:59:55;100058.02;;;11.32;77.38
36254;BME280;22291;52.250;21.228;2022-12-31T11:05:41;100054.70;;;11.09;77.50
36254;BME280;22291;52.250;21.228;2022-12-31T11:11:28;100054.19;;;10.89;77.77
36254;BME280;22291;52.250;21.228;2022-12-31T11:16:55;100040.08;;;10.81;78.20
36254;BME280;22291;52.250;21.228;2022-12-31T11:23:01;99999.81;;;10.79;78.97
36254;BME280;22291;52.250;21.228;2022-12-31T11:29:17;100000.88;;;10.98;79.74
36254;BME280;22291;52.250;21.228;2022-12-31T11:32:14;100010.13;;;11.47;80.79
36254;BME280;22291;52.250;21.228;2022-12-31T11:34:53;100022.63;;;11.63;78.72
36254;BME280;22291;52.250;21.228;2022-12-31T11:40:38;100029.72;;;11.62;77.83
36254;BME280;22291;52.250;21.228;2022-12-31T11:43:15;100026.22;;;11.52;77.23
36254;BME280;22291;52.250;21.228;2022-12-31T11:57:38;100009.31;;;10.97;78.17
36254;BME280;22291;52.250;21.228;2022-12-31T12:00:19;100011.61;;;10.92;77.88
36254;BME280;22291;52.250;21.228;2022-12-31T12:02:50;100005.73;;;10.90;78.57
36254;BME280;22291;52.250;21.228;2022-12-31T12:05:22;100028.73;;;10.99;78.71
36254;BME280;22291;52.250;21.228;2022-12-31T12:07:51;100020.77;;;11.02;78.76
36254;BME280;22291;52.250;21.228;2022-12-31T12:10:35;100015.61;;;11.03;78.67
36254;BME280;22291;52.250;21.228;2022-12-31T12:13:26;100006.52;;;10.99;78.47
36254;BME280;22291;52.250;21.228;2022-12-31T12:16:00;100009.54;;;10.98;78.45
36254;BME280;22291;52.250;21.228;2022-12-31T12:18:39;100012.40;;;10.93;78.81
36254;BME280;22291;52.250;21.228;2022-12-31T12:21:12;100021.40;;;10.91;79.02
36254;BME280;22291;52.250;21.228;2022-12-31T12:24:02;100018.47;;;10.90;79.22
36254;BME280;22291;52.250;21.228;2022-12-31T12:26:38;100013.06;;;10.90;79.15
36254;BME280;22291;52.250;21.228;2022-12-31T12:29:21;99995.63;;;10.93;79.54
36254;BME280;22291;52.250;21.228;2022-12-31T12:31:55;99988.05;;;11.01;79.61
36254;BME280;22291;52.250;21.228;2022-12-31T12:40:19;99990.11;;;11.13;78.57
36254;BME280;22291;52.250;21.228;2022-12-31T12:42:51;99980.73;;;11.11;78.67
36254;BME280;22291;52.250;21.228;2022-12-31T12:45:28;99979.38;;;11.11;79.44
36254;BME280;22291;52.250;21.228;2022-12-31T12:47:59;99979.13;;;11.10;79.56
36254;BME280;22291;52.250;21.228;2022-12-31T12:50:36;99964.81;;;11.09;80.03
36254;BME280;22291;52.250;21.228;2022-12-31T12:53:31;99979.44;;;11.08;80.64
36254;BME280;22291;52.250;21.228;2022-12-31T12:56:23;99969.34;;;11.02;81.19
36254;BME280;22291;52.250;21.228;2022-12-31T13:02:21;99976.13;;;10.85;82.87
36254;BME280;22291;52.250;21.228;2022-12-31T13:05:07;99970.63;;;10.79;83.26
36254;BME280;22291;52.250;21.228;2022-12-31T13:07:41;99975.16;;;10.72;83.81
36254;BME280;22291;52.250;21.228;2022-12-31T13:13:37;99977.70;;;10.69;84.62
36254;BME280;22291;52.250;21.228;2022-12-31T13:19:21;99972.86;;;10.68;84.87
36254;BME280;22291;52.250;21.228;2022-12-31T13:22:18;99967.60;;;10.72;85.05
36254;BME280;22291;52.250;21.228;2022-12-31T13:27:45;99941.27;;;10.75;85.41
36254;BME280;22291;52.250;21.228;2022-12-31T13:33:00;99949.23;;;10.80;85.67
36254;BME280;22291;52.250;21.228;2022-12-31T13:38:39;99944.29;;;10.82;85.91
36254;BME280;22291;52.250;21.228;2022-12-31T13:41:20;99949.07;;;10.85;85.82
36254;BME280;22291;52.250;21.228;2022-12-31T13:49:25;99955.89;;;10.91;86.28
36254;BME280;22291;52.250;21.228;2022-12-31T13:55:12;99957.65;;;10.96;86.17
36254;BME280;22291;52.250;21.228;2022-12-31T14:00:46;99980.95;;;11.03;86.07
36254;BME280;22291;52.250;21.228;2022-12-31T14:03:37;99969.82;;;11.05;85.99
36254;BME280;22291;52.250;21.228;2022-12-31T14:09:02;99986.71;;;11.10;85.83
36254;BME280;22291;52.250;21.228;2022-12-31T14:11:44;99984.69;;;11.13;85.71
36254;BME280;22291;52.250;21.228;2022-12-31T14:20:28;99979.30;;;11.22;85.42
36254;BME280;22291;52.250;21.228;2022-12-31T14:25:41;99991.84;;;11.27;85.20
36254;BME280;22291;52.250;21.228;2022-12-31T14:28:23;99995.59;;;11.28;85.07
36254;BME280;22291;52.250;21.228;2022-12-31T14:30:49;99981.48;;;11.29;85.10
36254;BME280;22291;52.250;21.228;2022-12-31T14:33:44;100007.93;;;11.32;84.55
36254;BME280;22291;52.250;21.228;2022-12-31T14:45:05;100006.34;;;11.39;84.50
36254;BME280;22291;52.250;21.228;2022-12-31T14:50:25;100001.64;;;11.43;84.47
36254;BME280;22291;52.250;21.228;2022-12-31T14:55:37;100015.02;;;11.48;84.06
36254;BME280;22291;52.250;21.228;2022-12-31T14:58:28;100013.34;;;11.49;84.23
36254;BME280;22291;52.250;21.228;2022-12-31T15:03:37;100005.27;;;11.55;83.96
36254;BME280;22291;52.250;21.228;2022-12-31T15:09:36;100006.69;;;11.62;83.40
36254;BME280;22291;52.250;21.228;2022-12-31T15:15:22;99998.51;;;11.79;83.52
36254;BME280;22291;52.250;21.228;2022-12-31T15:23:44;99984.89;;;11.73;83.31
36254;BME280;22291;52.250;21.228;2022-12-31T15:26:23;99990.48;;;11.76;83.28
36254;BME280;22291;52.250;21.228;2022-12-31T15:28:57;99987.20;;;11.77;83.19
36254;BME280;22291;52.250;21.228;2022-12-31T15:31:43;99992.77;;;11.81;82.95
36254;BME280;22291;52.250;21.228;2022-12-31T15:34:29;99986.06;;;11.87;83.06
36254;BME280;22291;52.250;21.228;2022-12-31T15:40:18;99983.42;;;11.93;82.68
36254;BME280;22291;52.250;21.228;2022-12-31T15:42:57;99975.21;;;11.95;82.97
36254;BME280;22291;52.250;21.228;2022-12-31T15:45:31;99966.65;;;12.00;82.74
36254;BME280;22291;52.250;21.228;2022-12-31T15:48:00;99978.34;;;12.06;82.63
36254;BME280;22291;52.250;21.228;2022-12-31T15:50:31;99976.09;;;12.08;82.35
36254;BME280;22291;52.250;21.228;2022-12-31T15:53:02;99966.98;;;12.13;82.32
36254;BME280;22291;52.250;21.228;2022-12-31T15:55:40;99974.61;;;12.20;82.38
36254;BME280;22291;52.250;21.228;2022-12-31T15:58:13;99976.89;;;12.24;82.41
36254;BME280;22291;52.250;21.228;2022-12-31T16:03:25;99973.02;;;12.33;81.69
36254;BME280;22291;52.250;21.228;2022-12-31T16:06:02;99961.52;;;12.37;81.51
36254;BME280;22291;52.250;21.228;2022-12-31T16:08:38;99969.00;;;12.40;81.08
36254;BME280;22291;52.250;21.228;2022-12-31T16:11:09;99978.30;;;12.45;81.61
36254;BME280;22291;52.250;21.228;2022-12-31T16:13:39;99980.12;;;12.47;81.09
36254;BME280;22291;52.250;21.228;2022-12-31T16:16:28;99978.32;;;12.51;81.45
36254;BME280;22291;52.250;21.228;2022-12-31T16:18:56;99983.66;;;12.54;81.18
36254;BME280;22291;52.250;21.228;2022-12-31T16:21:26;99983.55;;;12.56;81.34
36254;BME280;22291;52.250;21.228;2022-12-31T16:24:03;99981.88;;;12.58;81.06
36254;BME280;22291;52.250;21.228;2022-12-31T16:26:43;99985.74;;;12.63;80.75
36254;BME280;22291;52.250;21.228;2022-12-31T16:29:17;99996.73;;;12.66;80.59
36254;BME280;22291;52.250;21.228;2022-12-31T16:31:48;100000.06;;;12.72;80.77
36254;BME280;22291;52.250;21.228;2022-12-31T16:34:15;100009.77;;;12.73;80.28
36254;BME280;22291;52.250;21.228;2022-12-31T16:37:02;100005.38;;;12.75;80.23
36254;BME280;22291;52.250;21.228;2022-12-31T16:39:39;100014.79;;;12.77;79.99
36254;BME280;22291;52.250;21.228;2022-12-31T16:42:22;100018.17;;;12.80;80.10
36254;BME280;22291;52.250;21.228;2022-12-31T16:44:49;100013.65;;;12.78;80.22
36254;BME280;22291;52.250;21.228;2022-12-31T16:47:20;100015.25;;;12.79;79.26
36254;BME280;22291;52.250;21.228;2022-12-31T16:49:57;100014.02;;;12.83;79.38
36254;BME280;22291;52.250;21.228;2022-12-31T16:52:40;100001.48;;;12.84;80.04
36254;BME280;22291;52.250;21.228;2022-12-31T16:55:15;99993.34;;;12.84;79.56
36254;BME280;22291;52.250;21.228;2022-12-31T16:57:47;99987.13;;;12.84;80.07
36254;BME280;22291;52.250;21.228;2022-12-31T17:00:22;99985.77;;;12.84;79.56
36254;BME280;22291;52.250;21.228;2022-12-31T17:03:02;99995.27;;;12.84;79.92
36254;BME280;22291;52.250;21.228;2022-12-31T17:05:32;99992.06;;;12.82;79.90
36254;BME280;22291;52.250;21.228;2022-12-31T17:08:44;99999.42;;;12.81;79.73
36254;BME280;22291;52.250;21.228;2022-12-31T17:10:42;99998.97;;;12.79;79.73
36254;BME280;22291;52.250;21.228;2022-12-31T17:13:28;100003.61;;;12.79;79.87
36254;BME280;22291;52.250;21.228;2022-12-31T17:15:58;100003.94;;;12.77;79.82
36254;BME280;22291;52.250;21.228;2022-12-31T17:18:34;100005.38;;;12.75;79.96
36254;BME280;22291;52.250;21.228;2022-12-31T17:21:08;100001.55;;;12.76;79.86
36254;BME280;22291;52.250;21.228;2022-12-31T17:23:37;100007.63;;;12.73;79.87
36254;BME280;22291;52.250;21.228;2022-12-31T17:26:11;100004.92;;;12.73;79.96
36254;BME280;22291;52.250;21.228;2022-12-31T17:28:47;100006.27;;;12.73;79.64